Terminal Aerodrome Forecast
Issued by NWS

Home | Current Version | Previous Version | Text Only | Print | Product List | Glossary Off
Versions: 1 2 3 4 5 6 7 8 9 10 11 12 13 14 15 16 17 18

686
FTUS43 KABR 221731
TAFATY
TAF
KATY 221731Z 2218/2318 27008KT P6SM FEW250
     FM230200 22007KT P6SM SKC
     FM231700 20011KT P6SM FEW250=

USA.gov is the U.S. government's official web portal to all federal, state and local government web resources and services.